Time;durP1;ratioP1;P1;durP2;ratioP2;P2;SDS_P1;SDS_P2;PMS_P1;PMS_P2;Temp;Humidity;BMP_temperature;BMP_pressure;BME280_temperature;BME280_humidity;BME280_pressure;Samples;Min_cycle;Max_cycle;Signal;HPM_P1;HPM_P2
2021/11/29 00:01:07;;;;;;;1.45;1.35;;;0.20;99.90;;;;;;4832640;29;20049;-62
2021/11/29 00:03:35;;;;;;;2.88;1.70;;;0.20;99.90;;;;;;4836233;29;20084;-64
2021/11/29 00:06:04;;;;;;;1.33;1.23;;;0.20;99.90;;;;;;4840944;29;20061;-63
2021/11/29 00:08:31;;;;;;;3.20;1.73;;;0.10;99.90;;;;;;4843515;29;20700;-67
2021/11/29 00:10:59;;;;;;;1.98;1.85;;;0.10;99.90;;;;;;4840336;29;20082;-64
2021/11/29 00:13:26;;;;;;;2.03;1.20;;;0.20;99.90;;;;;;4835118;29;20065;-64
2021/11/29 00:15:53;;;;;;;3.50;1.58;;;0.10;99.90;;;;;;4843592;29;20314;-67
2021/11/29 00:18:20;;;;;;;1.30;1.17;;;0.10;99.90;;;;;;4843367;29;20053;-63
2021/11/29 00:20:47;;;;;;;2.50;1.10;;;0.10;99.90;;;;;;4839860;29;20050;-63
2021/11/29 00:23:15;;;;;;;2.08;1.60;;;0.10;99.90;;;;;;4834058;29;20054;-67
2021/11/29 00:25:43;;;;;;;2.22;1.50;;;0.10;99.90;;;;;;4841864;29;20054;-63
2021/11/29 00:28:10;;;;;;;2.83;1.98;;;0.10;99.90;;;;;;4840317;29;20062;-63
2021/11/29 00:30:38;;;;;;;3.22;1.98;;;0.10;99.90;;;;;;4843451;29;20061;-66
2021/11/29 00:33:06;;;;;;;2.17;1.98;;;0.20;99.90;;;;;;4840181;29;20141;-64
2021/11/29 00:35:34;;;;;;;3.28;1.48;;;0.20;99.90;;;;;;4849880;29;20133;-63
2021/11/29 00:38:01;;;;;;;1.80;1.70;;;0.20;99.90;;;;;;4843680;29;20057;-66
2021/11/29 00:40:28;;;;;;;2.20;2.00;;;0.20;99.90;;;;;;4838716;29;20090;-63
2021/11/29 00:42:55;;;;;;;2.47;1.98;;;0.20;99.90;;;;;;4845641;29;20045;-63
2021/11/29 00:45:23;;;;;;;2.25;2.05;;;0.20;99.90;;;;;;4839179;29;20139;-68
2021/11/29 00:47:50;;;;;;;2.65;2.38;;;0.20;99.90;;;;;;4840047;29;20046;-65
2021/11/29 00:50:19;;;;;;;2.53;2.13;;;0.20;99.90;;;;;;4838603;29;20062;-65
2021/11/29 00:52:46;;;;;;;2.58;2.08;;;0.20;99.90;;;;;;4844013;29;20465;-64
2021/11/29 00:55:14;;;;;;;2.58;2.38;;;0.30;99.90;;;;;;4840051;29;20706;-65
2021/11/29 00:57:41;;;;;;;4.22;2.83;;;0.20;99.90;;;;;;4838727;29;20048;-64
2021/11/29 01:00:18;;;;;;;4.70;1.95;;;0.20;99.90;;;;;;4846453;29;20046;-65
2021/11/29 01:02:45;;;;;;;3.15;1.98;;;0.30;99.90;;;;;;4840353;29;20080;-63
2021/11/29 01:05:12;;;;;;;2.35;2.13;;;0.30;99.90;;;;;;4837004;29;20098;-65
2021/11/29 01:07:40;;;;;;;2.70;2.00;;;0.30;99.90;;;;;;4844600;29;20138;-64
2021/11/29 01:10:08;;;;;;;2.92;2.03;;;0.40;99.90;;;;;;4837904;29;20062;-64
2021/11/29 01:12:36;;;;;;;3.28;2.22;;;0.30;99.90;;;;;;4836832;29;20052;-64
2021/11/29 01:15:04;;;;;;;3.63;2.20;;;0.30;99.90;;;;;;4839280;29;20050;-64
2021/11/29 01:17:32;;;;;;;2.75;2.05;;;0.30;99.90;;;;;;4844008;29;20539;-62
2021/11/29 01:19:59;;;;;;;3.55;2.63;;;0.30;99.90;;;;;;4841111;29;20631;-71
2021/11/29 01:22:26;;;;;;;3.75;2.42;;;0.30;99.90;;;;;;4841751;29;20050;-63
2021/11/29 01:24:53;;;;;;;1.90;1.77;;;0.30;99.90;;;;;;4840264;29;20102;-66
2021/11/29 01:27:20;;;;;;;2.92;2.65;;;0.30;99.90;;;;;;4844292;29;20072;-67
2021/11/29 01:29:47;;;;;;;2.47;2.10;;;0.30;99.90;;;;;;4869762;29;20050;-63
2021/11/29 01:32:14;;;;;;;2.75;2.33;;;0.30;99.90;;;;;;4839029;29;20057;-63
2021/11/29 01:34:41;;;;;;;2.58;2.33;;;0.30;99.90;;;;;;4841787;29;20050;-63
2021/11/29 01:37:08;;;;;;;5.00;3.05;;;0.30;99.90;;;;;;4842381;29;20057;-63
2021/11/29 01:39:35;;;;;;;2.72;2.15;;;0.20;99.90;;;;;;4838722;29;20110;-64
2021/11/29 01:42:03;;;;;;;2.90;2.30;;;0.20;99.90;;;;;;4848507;29;20053;-64
2021/11/29 01:44:30;;;;;;;4.22;2.78;;;0.20;99.90;;;;;;4836560;29;20461;-63
2021/11/29 01:46:57;;;;;;;4.72;2.75;;;0.20;99.90;;;;;;4840619;29;20054;-70
2021/11/29 01:49:24;;;;;;;3.42;2.53;;;0.30;99.90;;;;;;4843224;29;20046;-67
2021/11/29 01:51:51;;;;;;;3.78;2.60;;;0.30;99.90;;;;;;4843910;29;20061;-63
2021/11/29 01:54:19;;;;;;;3.35;2.38;;;0.30;99.90;;;;;;4832831;29;20050;-62
2021/11/29 01:56:46;;;;;;;2.85;2.55;;;0.30;99.90;;;;;;4847629;29;21284;-69
2021/11/29 01:59:13;;;;;;;3.33;2.15;;;0.20;99.90;;;;;;4842898;29;20056;-64
2021/11/29 02:01:41;;;;;;;4.53;2.10;;;0.30;99.90;;;;;;4844191;29;20050;-67
2021/11/29 02:04:11;;;;;;;2.17;1.95;;;0.30;99.90;;;;;;4842540;29;20160;-69
2021/11/29 02:06:39;;;;;;;;;;;0.30;99.90;;;;;;4850739;29;20416;-66
2021/11/29 02:09:09;;;;;;;2.22;1.67;;;0.30;99.90;;;;;;4844404;29;20354;-63
2021/11/29 02:11:37;;;;;;;2.25;1.90;;;0.30;99.90;;;;;;4838824;29;20050;-63
2021/11/29 02:14:05;;;;;;;2.05;1.48;;;0.30;99.90;;;;;;4838092;29;20077;-63
2021/11/29 02:16:32;;;;;;;1.88;1.52;;;0.40;99.90;;;;;;4838691;29;20061;-65
2021/11/29 02:19:01;;;;;;;2.25;1.40;;;0.40;99.90;;;;;;4836951;29;20049;-66
2021/11/29 02:21:31;;;;;;;2.15;1.75;;;0.40;99.90;;;;;;4845148;29;20466;-63
2021/11/29 02:24:03;;;;;;;2.85;2.58;;;0.40;99.90;;;;;;4844907;29;20080;-70
2021/11/29 02:26:32;;;;;;;2.17;1.98;;;0.40;99.90;;;;;;4864956;29;20575;-64
2021/11/29 02:29:04;;;;;;;2.58;2.30;;;0.40;99.90;;;;;;4837613;29;20053;-66
2021/11/29 02:31:37;;;;;;;1.92;1.70;;;0.40;99.90;;;;;;4831978;29;20466;-70
2021/11/29 02:34:18;;;;;;;2.75;2.05;;;0.40;99.90;;;;;;4836287;29;20054;-64
2021/11/29 02:36:47;;;;;;;2.05;1.73;;;0.40;99.90;;;;;;4836314;29;20054;-69
2021/11/29 02:39:15;;;;;;;1.65;1.55;;;0.50;99.90;;;;;;4836659;29;20114;-63
2021/11/29 02:41:43;;;;;;;23.27;2.90;;;0.40;99.90;;;;;;4838742;29;20110;-63
2021/11/29 02:44:10;;;;;;;2.67;1.60;;;0.50;99.90;;;;;;4829741;29;20052;-63
2021/11/29 02:46:38;;;;;;;1.98;1.77;;;0.50;99.90;;;;;;4851030;29;20045;-65
2021/11/29 02:49:07;;;;;;;1.63;1.33;;;0.50;99.90;;;;;;4842390;29;20393;-63
2021/11/29 02:51:39;;;;;;;1.58;1.48;;;0.50;99.90;;;;;;4841399;29;20053;-64
2021/11/29 02:54:14;;;;;;;2.88;1.60;;;0.50;99.90;;;;;;4835116;29;20069;-64
2021/11/29 02:56:45;;;;;;;1.75;1.55;;;0.50;99.90;;;;;;4840188;29;20054;-66
2021/11/29 02:59:19;;;;;;;2.65;1.60;;;0.60;99.90;;;;;;4837782;29;20072;-63
2021/11/29 03:01:49;;;;;;;1.38;1.10;;;0.60;99.90;;;;;;4845432;29;20049;-63
2021/11/29 03:04:22;;;;;;;2.53;1.50;;;0.60;99.90;;;;;;4836870;29;20061;-62
2021/11/29 03:06:49;;;;;;;2.45;1.58;;;0.60;99.90;;;;;;4842650;29;20053;-63
2021/11/29 03:09:17;;;;;;;3.10;1.42;;;0.60;99.90;;;;;;4840883;29;20508;-62
2021/11/29 03:11:45;;;;;;;3.88;2.10;;;0.60;99.90;;;;;;4829674;29;20075;-67
2021/11/29 03:14:13;;;;;;;3.05;1.83;;;0.60;99.90;;;;;;4833907;29;20058;-63
2021/11/29 03:16:40;;;;;;;5.93;2.35;;;0.70;99.90;;;;;;4839751;29;20060;-64
2021/11/29 03:19:07;;;;;;;1.75;1.65;;;0.70;99.90;;;;;;4837607;29;20054;-64
2021/11/29 03:21:35;;;;;;;1.73;1.35;;;0.70;99.90;;;;;;4841064;29;20497;-64
2021/11/29 03:24:07;;;;;;;3.88;3.10;;;0.70;99.90;;;;;;4838439;29;20050;-70
2021/11/29 03:26:35;;;;;;;2.35;1.60;;;0.80;99.90;;;;;;4825639;29;20055;-62
2021/11/29 03:29:21;;;;;;;2.22;1.60;;;0.80;99.90;;;;;;4836648;29;20484;-66
2021/11/29 03:31:53;;;;;;;3.15;1.58;;;0.70;99.90;;;;;;4836560;29;20058;-63
2021/11/29 03:34:22;;;;;;;2.80;1.63;;;0.70;99.90;;;;;;4836807;29;20054;-63
2021/11/29 03:36:49;;;;;;;2.28;2.08;;;0.70;99.90;;;;;;4836174;29;20046;-66
2021/11/29 03:39:24;;;;;;;6.60;1.73;;;0.70;99.90;;;;;;4835915;29;20050;-66
2021/11/29 03:41:53;;;;;;;2.15;1.55;;;0.70;99.90;;;;;;4836277;29;20120;-66
2021/11/29 03:44:22;;;;;;;1.30;1.05;;;0.70;99.90;;;;;;4840958;29;20049;-64
2021/11/29 03:46:51;;;;;;;2.13;1.70;;;0.70;99.90;;;;;;4836970;29;20114;-63
2021/11/29 03:49:18;;;;;;;2.05;1.90;;;0.70;99.90;;;;;;4837684;29;20128;-63
2021/11/29 03:51:45;;;;;;;2.95;2.03;;;0.80;99.90;;;;;;4843764;29;20045;-64
2021/11/29 03:54:12;;;;;;;2.65;1.85;;;0.70;99.90;;;;;;4834801;29;20053;-63
2021/11/29 03:56:40;;;;;;;3.67;2.60;;;0.80;99.90;;;;;;4836736;29;20050;-68
2021/11/29 03:59:08;;;;;;;2.67;2.40;;;0.80;99.90;;;;;;4847060;29;20110;-62
2021/11/29 04:01:35;;;;;;;4.40;2.58;;;0.80;99.90;;;;;;4846314;29;20057;-63
2021/11/29 04:04:04;;;;;;;2.80;2.53;;;0.80;99.90;;;;;;4847087;29;20049;-69
2021/11/29 04:06:32;;;;;;;2.53;2.30;;;0.80;99.90;;;;;;4839264;29;20516;-67
2021/11/29 04:08:59;;;;;;;2.40;2.10;;;0.80;99.90;;;;;;4850570;29;20045;-66
2021/11/29 04:11:26;;;;;;;3.67;2.20;;;0.80;99.90;;;;;;4839145;29;20057;-65
2021/11/29 04:13:54;;;;;;;2.17;1.98;;;0.80;99.90;;;;;;4835027;29;20109;-65
2021/11/29 04:16:21;;;;;;;2.17;1.98;;;0.80;99.90;;;;;;4841259;29;20119;-65
2021/11/29 04:18:48;;;;;;;3.65;2.25;;;0.90;99.90;;;;;;4847936;29;20057;-64
2021/11/29 04:21:16;;;;;;;2.30;2.00;;;0.90;99.90;;;;;;4840848;29;20098;-62
2021/11/29 04:23:45;;;;;;;2.63;2.17;;;0.90;99.90;;;;;;4842521;29;20066;-65
2021/11/29 04:26:16;;;;;;;4.30;2.47;;;0.90;99.90;;;;;;4839851;29;20054;-63
2021/11/29 04:28:44;;;;;;;3.50;1.65;;;0.90;99.90;;;;;;4840095;29;20054;-64
2021/11/29 04:31:11;;;;;;;3.97;2.17;;;0.80;99.90;;;;;;4839176;29;20053;-63
2021/11/29 04:33:39;;;;;;;2.00;1.83;;;0.80;99.90;;;;;;4839569;29;20066;-63
2021/11/29 04:36:06;;;;;;;3.85;1.60;;;0.70;99.90;;;;;;4840981;29;20480;-63
2021/11/29 04:38:34;;;;;;;2.65;1.70;;;0.70;99.90;;;;;;4837334;29;20050;-65
2021/11/29 04:41:01;;;;;;;2.53;1.90;;;0.70;99.90;;;;;;4838143;29;20053;-66
2021/11/29 04:43:28;;;;;;;5.07;2.38;;;0.70;99.90;;;;;;4839059;29;20083;-65
2021/11/29 04:45:56;;;;;;;1.95;1.70;;;0.70;99.90;;;;;;4840386;29;20054;-64
2021/11/29 04:48:23;;;;;;;2.10;1.70;;;0.60;99.90;;;;;;4838486;29;20442;-63
2021/11/29 04:50:50;;;;;;;1.65;1.52;;;0.60;99.90;;;;;;4832807;29;20054;-63
2021/11/29 04:53:17;;;;;;;4.40;1.80;;;0.60;99.90;;;;;;4841647;29;20054;-63
2021/11/29 04:55:44;;;;;;;1.80;1.42;;;0.60;99.90;;;;;;4842278;29;20054;-63
2021/11/29 04:58:11;;;;;;;3.38;1.88;;;0.60;99.90;;;;;;4843625;29;20046;-63
2021/11/29 05:00:38;;;;;;;2.90;1.50;;;0.60;99.90;;;;;;4837136;29;20072;-64
2021/11/29 05:03:06;;;;;;;7.03;1.73;;;0.60;99.90;;;;;;4838656;29;20049;-64
2021/11/29 05:05:33;;;;;;;1.60;1.50;;;0.60;99.90;;;;;;4842517;29;20121;-63
2021/11/29 05:08:19;;;;;;;2.50;2.25;;;0.60;99.90;;;;;;4837922;29;20073;-66
2021/11/29 05:10:47;;;;;;;5.43;1.88;;;0.60;99.90;;;;;;4835947;29;20057;-65
2021/11/29 05:13:14;;;;;;;3.05;1.60;;;0.60;99.90;;;;;;4843212;29;20448;-64
2021/11/29 05:15:41;;;;;;;3.33;2.65;;;0.60;99.90;;;;;;4839441;29;20603;-63
2021/11/29 05:18:08;;;;;;;4.18;1.98;;;0.60;99.90;;;;;;4833131;29;20054;-64
2021/11/29 05:20:35;;;;;;;7.60;4.03;;;0.60;99.90;;;;;;4838361;29;20113;-63
2021/11/29 05:23:03;;;;;;;4.22;2.83;;;0.60;99.90;;;;;;4840687;29;20126;-65
2021/11/29 05:25:30;;;;;;;3.00;2.70;;;0.60;99.90;;;;;;4844806;29;20517;-64
2021/11/29 05:27:57;;;;;;;4.13;3.00;;;0.60;99.90;;;;;;4840623;29;20107;-65
2021/11/29 05:30:24;;;;;;;4.70;2.10;;;0.50;99.90;;;;;;4835698;29;20074;-63
2021/11/29 05:32:52;;;;;;;4.57;2.20;;;0.50;99.90;;;;;;4838774;29;20061;-63
2021/11/29 05:35:19;;;;;;;3.45;2.25;;;0.50;99.90;;;;;;4837959;29;20141;-62
2021/11/29 05:37:46;;;;;;;6.85;2.17;;;0.50;99.90;;;;;;4843443;29;20560;-66
2021/11/29 05:40:14;;;;;;;10.65;2.58;;;0.50;99.90;;;;;;4833889;29;20471;-65
2021/11/29 05:42:43;;;;;;;7.15;2.53;;;0.50;99.90;;;;;;4837840;29;20046;-65
2021/11/29 05:45:11;;;;;;;7.55;2.80;;;0.50;99.90;;;;;;4840300;29;20046;-65
2021/11/29 05:47:39;;;;;;;5.40;2.30;;;0.50;99.90;;;;;;4828837;29;20050;-66
2021/11/29 05:50:08;;;;;;;9.32;2.35;;;0.50;99.90;;;;;;4841645;29;20053;-63
2021/11/29 05:52:35;;;;;;;4.65;2.55;;;0.50;99.90;;;;;;4838056;29;20115;-66
2021/11/29 05:55:04;;;;;;;7.22;2.05;;;0.50;99.90;;;;;;4839737;29;20046;-67
2021/11/29 05:57:36;;;;;;;4.50;2.05;;;0.50;99.90;;;;;;4839310;29;20076;-64
2021/11/29 06:00:08;;;;;;;8.32;2.42;;;0.50;99.90;;;;;;4837551;29;20053;-63
2021/11/29 06:02:39;;;;;;;8.77;2.50;;;0.60;99.90;;;;;;4839751;29;20160;-66
2021/11/29 06:05:08;;;;;;;4.25;2.15;;;0.60;99.90;;;;;;4841773;29;20469;-65
2021/11/29 06:07:35;;;;;;;7.70;2.45;;;0.60;99.90;;;;;;4841002;29;20054;-65
2021/11/29 06:10:04;;;;;;;4.38;2.28;;;0.60;99.90;;;;;;4844203;29;20489;-66
2021/11/29 06:12:31;;;;;;;7.20;2.97;;;0.60;99.90;;;;;;4839621;29;20042;-63
2021/11/29 06:14:58;;;;;;;11.02;2.65;;;0.50;99.90;;;;;;4837727;29;20586;-63
2021/11/29 06:17:25;;;;;;;11.27;2.85;;;0.50;99.90;;;;;;4836740;29;20145;-63
2021/11/29 06:19:52;;;;;;;4.78;2.20;;;0.50;99.90;;;;;;4842124;29;20062;-65
2021/11/29 06:22:19;;;;;;;14.75;3.33;;;0.60;99.90;;;;;;4833171;29;20042;-63
2021/11/29 06:24:46;;;;;;;10.60;3.80;;;0.60;99.90;;;;;;4838373;29;20066;-63
2021/11/29 06:27:13;;;;;;;4.60;2.67;;;0.60;99.90;;;;;;4833812;29;20046;-65
2021/11/29 06:29:40;;;;;;;15.35;4.38;;;0.60;99.90;;;;;;4834403;29;20598;-65
2021/11/29 06:32:07;;;;;;;9.25;3.78;;;0.60;99.90;;;;;;4835568;29;20050;-63
2021/11/29 06:34:34;;;;;;;10.60;4.22;;;0.60;99.90;;;;;;4833380;29;20057;-63
2021/11/29 06:37:02;;;;;;;6.25;2.78;;;0.60;99.90;;;;;;4834970;29;20801;-62
2021/11/29 06:39:30;;;;;;;8.52;3.55;;;0.60;99.90;;;;;;4834832;29;20049;-63
2021/11/29 06:41:59;;;;;;;13.02;3.53;;;0.70;99.90;;;;;;4834851;29;20053;-64
2021/11/29 06:44:26;;;;;;;4.78;2.95;;;0.70;99.90;;;;;;4846548;29;20057;-64
2021/11/29 06:46:53;;;;;;;5.32;4.53;;;0.70;99.90;;;;;;4834926;29;20050;-65
2021/11/29 06:49:20;;;;;;;14.40;4.22;;;0.70;99.90;;;;;;4828236;29;20042;-63
2021/11/29 06:51:47;;;;;;;6.63;2.90;;;0.70;99.90;;;;;;4838983;29;20114;-63
2021/11/29 06:54:15;;;;;;;6.32;3.50;;;0.70;99.90;;;;;;4843839;29;20059;-62
2021/11/29 06:56:42;;;;;;;6.20;2.65;;;0.70;99.90;;;;;;4840941;29;20046;-65
2021/11/29 06:59:09;;;;;;;8.77;2.50;;;0.70;99.90;;;;;;4839469;29;20106;-64
2021/11/29 07:01:36;;;;;;;9.88;2.88;;;0.70;99.90;;;;;;4839996;29;20049;-63
2021/11/29 07:04:03;;;;;;;8.98;3.30;;;0.80;99.90;;;;;;4838164;29;20046;-62
2021/11/29 07:06:31;;;;;;;9.88;2.78;;;0.80;99.90;;;;;;4834978;29;20406;-67
2021/11/29 07:08:58;;;;;;;5.95;2.10;;;0.80;99.90;;;;;;4834780;29;20095;-65
2021/11/29 07:11:25;;;;;;;6.68;2.50;;;0.90;99.90;;;;;;4832367;29;20119;-65
2021/11/29 07:13:52;;;;;;;7.43;2.15;;;0.90;99.90;;;;;;4830362;29;20141;-65
2021/11/29 07:16:19;;;;;;;15.25;3.15;;;0.90;99.90;;;;;;4831638;29;20053;-64
2021/11/29 07:18:46;;;;;;;12.80;3.22;;;0.90;99.90;;;;;;4838899;29;20114;-65
2021/11/29 07:21:13;;;;;;;7.20;3.17;;;0.90;99.90;;;;;;4837156;29;20046;-70
2021/11/29 07:23:40;;;;;;;3.92;2.60;;;1.00;99.90;;;;;;4833839;29;20049;-65
2021/11/29 07:26:08;;;;;;;3.72;3.30;;;1.00;99.90;;;;;;4833788;29;20061;-67
2021/11/29 07:28:36;;;;;;;6.25;3.30;;;1.00;99.90;;;;;;4833585;29;20069;-64
2021/11/29 07:31:04;;;;;;;8.10;2.83;;;1.00;99.90;;;;;;4838832;29;20083;-71
2021/11/29 07:33:32;;;;;;;3.78;2.70;;;1.00;99.90;;;;;;4836736;29;20113;-66
2021/11/29 07:35:59;;;;;;;5.57;2.58;;;1.00;99.90;;;;;;4838924;29;20102;-65
2021/11/29 07:38:27;;;;;;;4.47;2.55;;;1.00;99.90;;;;;;4831963;29;20093;-70
2021/11/29 07:40:54;;;;;;;9.15;3.08;;;1.00;99.90;;;;;;4833155;29;20042;-63
2021/11/29 07:43:21;;;;;;;7.68;2.50;;;1.00;99.90;;;;;;4833095;29;20057;-64
2021/11/29 07:45:49;;;;;;;6.55;4.03;;;1.00;99.90;;;;;;4834652;29;20516;-73
2021/11/29 07:48:17;;;;;;;6.45;2.70;;;1.10;99.90;;;;;;4833669;29;20473;-68
2021/11/29 07:50:44;;;;;;;4.95;2.17;;;1.10;99.90;;;;;;4838395;29;20074;-63
2021/11/29 07:53:11;;;;;;;3.00;2.67;;;1.10;99.90;;;;;;4834564;29;20046;-70
2021/11/29 07:55:38;;;;;;;5.95;2.17;;;1.10;99.90;;;;;;4836730;29;20058;-64
2021/11/29 07:58:05;;;;;;;13.10;3.80;;;1.10;99.90;;;;;;4833928;29;20050;-63
2021/11/29 08:00:34;;;;;;;4.82;2.35;;;1.10;99.90;;;;;;4835973;29;20046;-69
2021/11/29 08:03:04;;;;;;;9.82;2.45;;;1.10;99.90;;;;;;4833662;29;20050;-65
2021/11/29 08:05:32;;;;;;;4.30;3.65;;;1.10;99.90;;;;;;4836538;29;20049;-67
2021/11/29 08:08:01;;;;;;;12.40;2.60;;;1.10;99.90;;;;;;4834126;29;20462;-64
2021/11/29 08:10:29;;;;;;;5.00;1.98;;;1.10;99.90;;;;;;4829193;29;20062;-63
2021/11/29 08:12:58;;;;;;;7.45;2.40;;;1.10;99.90;;;;;;4833990;29;20794;-63
2021/11/29 08:15:25;;;;;;;5.43;2.40;;;1.10;99.90;;;;;;4837009;29;20046;-63
2021/11/29 08:17:53;;;;;;;2.83;1.50;;;1.10;99.90;;;;;;4831926;29;20098;-64
2021/11/29 08:20:23;;;;;;;5.10;2.38;;;1.10;99.90;;;;;;4838170;29;20842;-66
2021/11/29 08:22:54;;;;;;;7.78;1.83;;;1.10;99.90;;;;;;4835407;29;20061;-65
2021/11/29 08:25:22;;;;;;;13.65;1.95;;;1.10;99.90;;;;;;4837478;29;20065;-67
2021/11/29 08:27:50;;;;;;;8.77;2.70;;;1.10;99.90;;;;;;4837256;29;20118;-71
2021/11/29 08:30:20;;;;;;;7.35;1.70;;;1.10;99.90;;;;;;4830985;29;20061;-65
2021/11/29 08:32:47;;;;;;;3.05;1.70;;;1.20;99.90;;;;;;4835697;29;20074;-64
2021/11/29 08:35:15;;;;;;;3.78;1.58;;;1.20;99.90;;;;;;4836748;29;20050;-68
2021/11/29 08:37:46;;;;;;;6.97;2.13;;;1.20;99.90;;;;;;4838814;29;20050;-62
2021/11/29 08:40:14;;;;;;;3.55;1.92;;;1.20;99.90;;;;;;4835256;29;20137;-65
2021/11/29 08:42:41;;;;;;;3.60;2.03;;;1.20;99.90;;;;;;4836569;29;20057;-64
2021/11/29 08:45:09;;;;;;;3.10;1.80;;;1.20;99.90;;;;;;4838044;29;20163;-64
2021/11/29 08:47:36;;;;;;;3.63;1.75;;;1.30;99.90;;;;;;4840859;29;20527;-63
2021/11/29 08:50:04;;;;;;;5.28;1.73;;;1.40;99.90;;;;;;4844227;29;20405;-65
2021/11/29 08:52:51;;;;;;;7.45;2.05;;;1.40;99.90;;;;;;4838814;29;20061;-67
2021/11/29 08:55:19;;;;;;;2.60;1.95;;;1.40;99.90;;;;;;4845440;29;20057;-67
2021/11/29 08:57:46;;;;;;;7.40;2.53;;;1.50;99.90;;;;;;4839932;29;20050;-65
2021/11/29 09:00:16;;;;;;;3.50;2.00;;;1.50;99.90;;;;;;4836264;29;20058;-64
2021/11/29 09:02:45;;;;;;;17.88;2.38;;;1.50;99.90;;;;;;4839286;29;20409;-64
2021/11/29 09:05:15;;;;;;;11.55;2.40;;;1.50;99.90;;;;;;4838633;29;20053;-65
2021/11/29 09:07:42;;;;;;;5.65;2.40;;;1.50;99.90;;;;;;4838556;29;20053;-64
2021/11/29 09:10:11;;;;;;;3.72;1.67;;;1.50;99.90;;;;;;4839868;29;20050;-66
2021/11/29 09:12:39;;;;;;;20.20;2.92;;;1.60;99.90;;;;;;4836123;29;20046;-66
2021/11/29 09:15:09;;;;;;;20.17;3.35;;;1.60;99.90;;;;;;4837061;29;20061;-64
2021/11/29 09:17:36;;;;;;;5.72;1.63;;;1.50;99.90;;;;;;4838555;29;20053;-68
2021/11/29 09:20:09;;;;;;;8.10;2.95;;;1.60;99.90;;;;;;4839384;29;20041;-64
2021/11/29 09:22:37;;;;;;;8.20;2.97;;;1.60;99.90;;;;;;4836713;29;20454;-64
2021/11/29 09:25:05;;;;;;;9.45;2.17;;;1.60;99.90;;;;;;4840745;29;20484;-64
2021/11/29 09:27:32;;;;;;;9.02;1.63;;;1.50;99.90;;;;;;4835580;29;20050;-68
2021/11/29 09:29:59;;;;;;;3.53;1.40;;;1.60;99.90;;;;;;4837999;29;20057;-68
2021/11/29 09:32:28;;;;;;;2.70;1.77;;;1.60;99.90;;;;;;4867728;29;20050;-66
2021/11/29 09:34:55;;;;;;;1.80;1.65;;;1.60;99.90;;;;;;4852827;29;20061;-64
2021/11/29 09:37:22;;;;;;;4.75;2.78;;;1.60;99.90;;;;;;4839212;29;20046;-66
2021/11/29 09:39:50;;;;;;;4.35;2.20;;;1.60;99.90;;;;;;4833409;29;20141;-66
2021/11/29 09:42:17;;;;;;;3.67;2.10;;;1.60;99.90;;;;;;4835676;29;20561;-64
2021/11/29 09:44:44;;;;;;;4.47;2.38;;;1.70;99.90;;;;;;4838670;29;20581;-65
2021/11/29 09:47:12;;;;;;;6.20;2.30;;;1.70;99.90;;;;;;4832084;29;20058;-65
2021/11/29 09:49:39;;;;;;;6.75;2.38;;;1.70;99.90;;;;;;4837308;29;20053;-63
2021/11/29 09:52:06;;;;;;;6.10;2.08;;;1.70;99.90;;;;;;4837026;29;20110;-62
2021/11/29 09:54:33;;;;;;;6.63;2.60;;;1.70;99.90;;;;;;4839594;29;20054;-66
2021/11/29 09:57:01;;;;;;;7.03;2.85;;;1.70;99.90;;;;;;4838946;29;20061;-64
2021/11/29 09:59:28;;;;;;;4.97;3.40;;;1.70;99.90;;;;;;4831922;29;20070;-64
2021/11/29 10:01:56;;;;;;;6.78;2.17;;;1.70;99.90;;;;;;4834166;29;20057;-64
2021/11/29 10:04:24;;;;;;;7.00;2.78;;;1.80;99.90;;;;;;4853883;29;20079;-65
2021/11/29 10:06:56;;;;;;;4.65;2.03;;;1.80;99.90;;;;;;4842509;29;20057;-70
2021/11/29 10:09:37;;;;;;;3.72;2.22;;;1.80;99.90;;;;;;4836796;29;20382;-63
2021/11/29 10:12:10;;;;;;;7.82;2.60;;;1.80;99.90;;;;;;4840841;29;20057;-65
2021/11/29 10:14:40;;;;;;;5.72;2.47;;;1.80;99.90;;;;;;4831576;29;20058;-67
2021/11/29 10:17:07;;;;;;;3.75;1.95;;;1.80;99.90;;;;;;4839093;29;20054;-64
2021/11/29 10:19:36;;;;;;;8.55;2.45;;;1.90;99.90;;;;;;4843972;29;20604;-63
2021/11/29 10:22:22;;;;;;;7.57;1.88;;;1.90;99.90;;;;;;4840281;29;20050;-67
2021/11/29 10:24:50;;;;;;;4.10;1.85;;;1.90;99.90;;;;;;4837989;29;20050;-66
2021/11/29 10:27:35;;;;;;;8.63;2.22;;;1.90;99.90;;;;;;4832772;29;20054;-63
2021/11/29 10:30:03;;;;;;;6.25;2.13;;;1.90;99.90;;;;;;4834105;29;20050;-68
2021/11/29 10:32:41;;;;;;;5.20;1.75;;;1.90;99.90;;;;;;4837569;29;20054;-65
2021/11/29 10:35:09;;;;;;;6.05;2.20;;;2.00;99.90;;;;;;4844311;29;20065;-64
2021/11/29 10:37:39;;;;;;;6.60;1.88;;;2.00;99.90;;;;;;4842945;29;20064;-64
2021/11/29 10:40:09;;;;;;;4.68;1.85;;;2.00;99.90;;;;;;4829949;29;20049;-68
2021/11/29 10:42:37;;;;;;;9.68;2.55;;;2.00;99.90;;;;;;4836747;29;20046;-63
2021/11/29 10:45:06;;;;;;;5.75;2.30;;;2.00;99.90;;;;;;4833092;29;20057;-63
2021/11/29 10:47:35;;;;;;;2.63;1.98;;;2.00;99.90;;;;;;4833867;29;20053;-62
2021/11/29 10:50:04;;;;;;;4.60;1.98;;;2.00;99.90;;;;;;4835968;29;20509;-64
2021/11/29 10:52:35;;;;;;;3.88;1.40;;;2.00;99.90;;;;;;4842312;29;20052;-64
2021/11/29 10:55:03;;;;;;;3.10;1.30;;;2.00;99.90;;;;;;4835595;29;20038;-69
2021/11/29 10:57:31;;;;;;;4.30;2.13;;;2.00;99.90;;;;;;4836934;29;21312;-66
2021/11/29 10:59:58;;;;;;;2.33;1.25;;;2.00;99.90;;;;;;4837808;29;20046;-64
2021/11/29 11:02:27;;;;;;;4.90;2.00;;;2.00;99.90;;;;;;4839307;29;20062;-67
2021/11/29 11:05:05;;;;;;;1.70;1.10;;;2.00;99.90;;;;;;4838285;29;20089;-63
2021/11/29 11:07:35;;;;;;;1.90;1.50;;;2.10;99.90;;;;;;4841588;29;20061;-65
2021/11/29 11:10:06;;;;;;;3.40;1.55;;;2.10;99.90;;;;;;4839845;29;20064;-66
2021/11/29 11:12:36;;;;;;;3.10;2.10;;;2.10;99.90;;;;;;4838910;29;20054;-63
2021/11/29 11:15:15;;;;;;;3.45;1.70;;;2.10;99.90;;;;;;4836981;29;20465;-66
2021/11/29 11:18:03;;;;;;;1.70;1.30;;;2.10;99.90;;;;;;4827119;29;20069;-62
2021/11/29 11:20:30;;;;;;;3.60;2.10;;;2.10;99.90;;;;;;4839996;29;20054;-66
2021/11/29 11:22:57;;;;;;;2.42;1.52;;;2.10;99.90;;;;;;4837400;29;20091;-64
2021/11/29 11:25:30;;;;;;;2.22;1.38;;;2.10;99.90;;;;;;4839172;29;20052;-63
2021/11/29 11:28:03;;;;;;;10.25;1.83;;;2.10;99.90;;;;;;4844363;29;20057;-64
2021/11/29 11:30:33;;;;;;;2.35;1.88;;;2.10;99.90;;;;;;4836184;29;20068;-67
2021/11/29 11:33:02;;;;;;;;;;;2.10;99.90;;;;;;4836497;29;20049;-66
2021/11/29 11:35:42;;;;;;;5.10;2.08;;;2.10;99.90;;;;;;4840490;29;19933;-67
2021/11/29 11:38:19;;;;;;;2.97;2.17;;;2.00;99.90;;;;;;4835422;29;20046;-66
2021/11/29 11:40:50;;;;;;;2.60;2.30;;;1.90;99.90;;;;;;4839060;29;20588;-63
2021/11/29 11:43:20;;;;;;;3.40;1.65;;;1.80;99.90;;;;;;4838227;29;20188;-62
2021/11/29 11:45:49;;;;;;;4.15;1.98;;;1.80;99.90;;;;;;4840380;29;20058;-63
2021/11/29 11:48:17;;;;;;;2.70;2.30;;;1.70;99.90;;;;;;4839062;29;20137;-64
2021/11/29 11:50:50;;;;;;;2.67;2.03;;;1.70;99.90;;;;;;4836016;29;20042;-65
2021/11/29 11:53:17;;;;;;;3.67;1.95;;;1.70;99.90;;;;;;4833468;29;20060;-64
2021/11/29 11:55:48;;;;;;;2.42;2.08;;;1.70;99.90;;;;;;4845253;29;20088;-66
2021/11/29 11:58:18;;;;;;;3.70;1.65;;;1.70;99.90;;;;;;4837900;29;20110;-64
2021/11/29 12:01:02;;;;;;;3.67;2.10;;;1.70;99.90;;;;;;4836241;29;20497;-66
2021/11/29 12:03:32;;;;;;;3.53;1.55;;;1.80;99.90;;;;;;4833893;29;20524;-64
2021/11/29 12:06:03;;;;;;;2.70;2.50;;;1.80;99.90;;;;;;4837201;29;20045;-66
2021/11/29 12:08:40;;;;;;;3.45;2.85;;;1.80;99.90;;;;;;4838872;29;20129;-64
2021/11/29 12:11:29;;;;;;;2.85;2.50;;;1.80;99.90;;;;;;4837532;29;20069;-62
2021/11/29 12:14:22;;;;;;;2.65;1.83;;;1.80;99.90;;;;;;4838081;29;20060;-66
2021/11/29 12:17:00;;;;;;;1.95;1.17;;;1.70;99.90;;;;;;4829560;29;20052;-65
2021/11/29 12:19:27;;;;;;;1.33;1.17;;;1.80;99.90;;;;;;4839100;29;20469;-64
2021/11/29 12:22:00;;;;;;;0.80;0.80;;;1.70;99.90;;;;;;4842073;29;20050;-65
2021/11/29 12:24:42;;;;;;;1.05;0.70;;;1.70;99.90;;;;;;4829307;29;20136;-66
2021/11/29 12:27:11;;;;;;;1.85;1.33;;;1.70;99.90;;;;;;4841923;29;20420;-66
2021/11/29 12:29:41;;;;;;;1.08;0.98;;;1.70;99.90;;;;;;4838335;29;20142;-66
2021/11/29 12:32:14;;;;;;;1.17;1.00;;;1.70;99.90;;;;;;4838086;29;20691;-63
2021/11/29 12:34:55;;;;;;;2.75;1.05;;;1.80;99.90;;;;;;4841238;29;20060;-64
2021/11/29 12:37:40;;;;;;;2.67;1.85;;;1.70;99.90;;;;;;4843353;29;20057;-64
2021/11/29 12:40:10;;;;;;;2.55;1.05;;;1.70;99.90;;;;;;4837543;29;20541;-67
2021/11/29 12:42:37;;;;;;;1.65;0.80;;;1.70;99.90;;;;;;4844062;29;20049;-65
2021/11/29 12:45:05;;;;;;;2.95;1.23;;;1.70;99.90;;;;;;4838785;29;20645;-64
2021/11/29 12:47:39;;;;;;;2.05;1.35;;;1.80;99.90;;;;;;4842881;29;20077;-65
2021/11/29 12:50:42;;;;;;;2.72;1.02;;;1.80;99.90;;;;;;4836352;29;20052;-64
2021/11/29 12:53:21;;;;;;;1.55;1.35;;;1.80;99.90;;;;;;4837651;29;20061;-63
2021/11/29 12:55:54;;;;;;;3.20;1.20;;;1.80;99.90;;;;;;4835840;29;20065;-63
2021/11/29 12:58:28;;;;;;;1.60;1.30;;;1.80;99.90;;;;;;4833575;29;20057;-63
2021/11/29 13:01:04;;;;;;;2.50;1.92;;;1.80;99.90;;;;;;4836676;29;20050;-64
2021/11/29 13:03:42;;;;;;;1.35;1.15;;;1.80;99.90;;;;;;4838512;29;20089;-67
2021/11/29 13:06:09;;;;;;;1.33;1.20;;;1.70;99.90;;;;;;4836814;29;20512;-66
2021/11/29 13:08:44;;;;;;;1.27;1.15;;;1.80;99.90;;;;;;4839235;29;20054;-63